createdAt,value
2022-10-22T00:00:56.773Z,1.90
2022-10-22T00:03:24.526Z,1.70
2022-10-22T00:05:52.360Z,1.50
2022-10-22T00:08:21.392Z,1.40
2022-10-22T00:10:49.034Z,2.00
2022-10-22T00:13:17.161Z,1.80
2022-10-22T00:15:45.159Z,1.40
2022-10-22T00:18:12.920Z,1.47
2022-10-22T00:20:40.528Z,1.50
2022-10-22T00:23:08.130Z,1.70
2022-10-22T00:25:37.523Z,1.70
2022-10-22T00:28:05.983Z,1.50
2022-10-22T00:30:33.674Z,1.70
2022-10-22T00:33:01.381Z,1.50
2022-10-22T00:35:29.030Z,1.77
2022-10-22T00:37:56.732Z,1.60
2022-10-22T00:40:24.369Z,1.43
2022-10-22T00:42:53.327Z,1.87
2022-10-22T00:45:24.517Z,1.77
2022-10-22T00:47:56.394Z,1.33
2022-10-22T00:50:27.512Z,1.83
2022-10-22T00:52:56.065Z,1.70
2022-10-22T00:55:25.277Z,1.63
2022-10-22T00:57:56.891Z,1.50
2022-10-22T01:00:25.177Z,1.43
2022-10-22T01:02:54.583Z,1.20
2022-10-22T01:05:22.769Z,1.67
2022-10-22T01:07:53.022Z,1.47
2022-10-22T01:10:35.871Z,1.47
2022-10-22T01:13:17.585Z,1.47
2022-10-22T01:15:54.692Z,1.30
2022-10-22T01:18:26.111Z,1.60
2022-10-22T01:21:11.383Z,1.57
2022-10-22T01:24:00.635Z,1.37
2022-10-22T01:26:40.450Z,1.20
2022-10-22T01:29:14.336Z,1.43
2022-10-22T01:31:47.557Z,1.40
2022-10-22T01:34:19.805Z,1.37
2022-10-22T01:36:49.169Z,1.20
2022-10-22T01:39:18.401Z,1.53
2022-10-22T01:41:46.378Z,1.27
2022-10-22T01:44:27.271Z,1.60
2022-10-22T01:47:07.523Z,1.40
2022-10-22T01:49:47.610Z,1.40
2022-10-22T01:52:24.000Z,1.20
2022-10-22T01:54:58.091Z,1.47
2022-10-22T01:57:34.563Z,1.23
2022-10-22T02:00:08.433Z,1.30
2022-10-22T02:02:43.049Z,1.40
2022-10-22T02:05:14.144Z,1.30
2022-10-22T02:07:44.954Z,1.10
2022-10-22T02:10:14.767Z,1.40
2022-10-22T02:12:44.617Z,1.60
2022-10-22T02:15:15.553Z,1.40
2022-10-22T02:17:46.684Z,1.07
2022-10-22T02:20:19.223Z,1.43
2022-10-22T02:22:48.160Z,1.20
2022-10-22T02:25:16.125Z,1.20
2022-10-22T02:27:48.838Z,1.30
2022-10-22T02:30:21.181Z,1.10
2022-10-22T02:32:54.961Z,1.50
2022-10-22T02:35:26.090Z,1.60
2022-10-22T02:37:55.586Z,1.40
2022-10-22T02:40:23.670Z,1.10
2022-10-22T02:42:52.016Z,1.50
2022-10-22T02:45:21.642Z,0.93
2022-10-22T02:47:49.957Z,1.10
2022-10-22T02:50:17.831Z,1.63
2022-10-22T02:52:45.494Z,1.13
2022-10-22T02:55:13.129Z,1.10
2022-10-22T02:57:41.094Z,1.37
2022-10-22T03:00:10.756Z,1.20
2022-10-22T03:02:39.781Z,1.20
2022-10-22T03:05:08.286Z,1.37
2022-10-22T03:07:35.996Z,1.40
2022-10-22T03:10:04.249Z,1.20
2022-10-22T03:12:32.022Z,1.30
2022-10-22T03:14:59.685Z,1.33
2022-10-22T03:17:27.423Z,1.40
2022-10-22T03:19:56.458Z,1.70
2022-10-22T03:22:27.621Z,1.13
2022-10-22T03:24:59.625Z,1.40
2022-10-22T03:27:29.233Z,1.50
2022-10-22T03:29:59.092Z,1.07
2022-10-22T03:32:26.758Z,1.37
2022-10-22T03:37:28.046Z,1.50
2022-10-22T03:39:56.556Z,1.30
2022-10-22T03:42:24.806Z,1.37
2022-10-22T03:44:53.126Z,1.80
2022-10-22T03:47:24.322Z,1.57
2022-10-22T03:49:52.010Z,1.40
2022-10-22T03:52:21.018Z,1.67
2022-10-22T03:54:48.744Z,1.30
2022-10-22T03:57:16.516Z,1.50
2022-10-22T03:59:46.103Z,1.00
2022-10-22T04:02:14.983Z,1.17
2022-10-22T04:04:42.684Z,1.40
2022-10-22T04:07:10.339Z,1.13
2022-10-22T04:09:39.375Z,1.17
2022-10-22T04:12:08.367Z,1.10
2022-10-22T04:14:36.598Z,1.00
2022-10-22T04:17:04.445Z,1.53
2022-10-22T04:19:32.130Z,1.40
2022-10-22T04:22:00.165Z,1.40
2022-10-22T04:24:27.982Z,1.27
2022-10-22T04:26:57.285Z,1.20
2022-10-22T04:29:25.456Z,0.90
2022-10-22T04:31:53.646Z,1.40
2022-10-22T04:34:21.378Z,1.13
2022-10-22T04:36:49.207Z,1.20
2022-10-22T04:39:16.850Z,1.47
2022-10-22T04:41:44.642Z,1.30
2022-10-22T04:44:16.751Z,1.40
2022-10-22T04:46:45.681Z,1.20
2022-10-22T04:49:13.472Z,1.50
2022-10-22T04:51:41.253Z,1.33
2022-10-22T04:54:08.946Z,1.20
2022-10-22T04:56:36.658Z,1.07
2022-10-22T04:59:06.604Z,1.13
2022-10-22T05:01:41.622Z,1.57
2022-10-22T05:04:13.502Z,1.33
2022-10-22T05:06:41.324Z,1.50
2022-10-22T05:09:13.201Z,1.40
2022-10-22T05:11:45.291Z,1.30
2022-10-22T05:14:13.682Z,1.10
2022-10-22T05:16:42.752Z,1.13
2022-10-22T05:19:17.227Z,1.13
2022-10-22T05:21:44.974Z,1.50
2022-10-22T05:24:12.831Z,1.50
2022-10-22T05:26:40.484Z,1.30
2022-10-22T05:29:08.185Z,1.20
2022-10-22T05:31:36.201Z,1.37
2022-10-22T05:34:05.385Z,1.53
2022-10-22T05:36:33.017Z,1.87
2022-10-22T05:39:00.878Z,1.47
2022-10-22T05:41:29.464Z,1.20
2022-10-22T05:43:58.095Z,1.20
2022-10-22T05:46:28.201Z,1.17
2022-10-22T05:48:57.806Z,1.20
2022-10-22T05:51:28.464Z,1.30
2022-10-22T05:53:57.651Z,1.00
2022-10-22T05:56:26.421Z,1.37
2022-10-22T05:58:54.250Z,1.53
2022-10-22T06:01:24.038Z,1.30
2022-10-22T06:03:54.554Z,1.00
2022-10-22T06:06:24.042Z,1.30
2022-10-22T06:08:54.732Z,1.10
2022-10-22T06:11:24.719Z,1.20
2022-10-22T06:13:52.902Z,1.10
2022-10-22T06:16:20.657Z,1.23
2022-10-22T06:18:48.459Z,1.43
2022-10-22T06:21:17.149Z,0.80
2022-10-22T06:23:45.300Z,1.10
2022-10-22T06:26:14.458Z,1.10
2022-10-22T06:28:42.241Z,1.00
2022-10-22T06:31:11.314Z,1.27
2022-10-22T06:33:42.393Z,1.20
2022-10-22T06:36:12.493Z,1.43
2022-10-22T06:38:40.862Z,1.17
2022-10-22T06:41:10.274Z,1.00
2022-10-22T06:43:39.516Z,1.40
2022-10-22T06:46:14.687Z,1.83
2022-10-22T06:48:49.630Z,1.20
2022-10-22T06:51:17.511Z,1.13
2022-10-22T06:53:45.212Z,1.20
2022-10-22T06:56:14.393Z,1.00
2022-10-22T06:58:43.860Z,0.90
2022-10-22T07:01:13.674Z,1.60
2022-10-22T07:03:42.529Z,0.97
2022-10-22T07:06:12.445Z,1.10
2022-10-22T07:08:41.678Z,1.13
2022-10-22T07:11:11.427Z,1.03
2022-10-22T07:13:39.489Z,1.40
2022-10-22T07:16:09.266Z,1.20
2022-10-22T07:18:38.531Z,1.27
2022-10-22T07:21:08.034Z,0.83
2022-10-22T07:23:36.244Z,0.93
2022-10-22T07:26:04.645Z,1.20
2022-10-22T07:28:33.464Z,1.20
2022-10-22T07:31:01.432Z,1.50
2022-10-22T07:33:30.690Z,1.00
2022-10-22T07:36:00.324Z,1.30
2022-10-22T07:38:28.345Z,1.30
2022-10-22T07:40:56.449Z,1.10
2022-10-22T07:43:24.650Z,1.20
2022-10-22T07:45:52.426Z,1.27
2022-10-22T07:48:20.119Z,1.30
2022-10-22T07:50:50.600Z,1.10
2022-10-22T07:53:18.685Z,1.33
2022-10-22T07:55:49.582Z,1.20
2022-10-22T07:58:17.268Z,1.20
2022-10-22T08:00:45.374Z,1.30
2022-10-22T08:03:14.037Z,1.10
2022-10-22T08:05:43.720Z,1.30
2022-10-22T08:08:13.554Z,1.07
2022-10-22T08:10:41.319Z,1.20
2022-10-22T08:13:09.595Z,1.20
2022-10-22T08:15:37.812Z,1.20
2022-10-22T08:18:06.224Z,1.20
2022-10-22T08:20:33.976Z,1.20
2022-10-22T08:23:01.855Z,1.07
2022-10-22T08:25:31.056Z,1.13
2022-10-22T08:27:58.738Z,0.90
2022-10-22T08:30:27.728Z,1.03
2022-10-22T08:32:55.340Z,0.83
2022-10-22T08:35:23.813Z,1.10
2022-10-22T08:37:51.830Z,0.90
2022-10-22T08:40:24.780Z,0.97
2022-10-22T08:43:29.900Z,1.30
2022-10-22T08:46:11.027Z,1.67
2022-10-22T08:48:46.784Z,1.10
2022-10-22T08:51:20.024Z,1.17
2022-10-22T08:54:02.492Z,1.33
2022-10-22T08:56:31.857Z,1.30
2022-10-22T08:59:07.121Z,1.10
2022-10-22T09:01:39.069Z,1.27
2022-10-22T09:04:13.780Z,1.00
2022-10-22T09:06:44.263Z,1.33
2022-10-22T09:09:17.927Z,1.40
2022-10-22T09:11:47.831Z,1.37
2022-10-22T09:14:18.512Z,1.23
2022-10-22T09:17:06.212Z,1.20
2022-10-22T09:19:38.893Z,1.27
2022-10-22T09:22:20.984Z,1.13
2022-10-22T09:24:50.363Z,1.60
2022-10-22T09:27:20.510Z,1.20
2022-10-22T09:29:49.606Z,1.77
2022-10-22T09:32:18.251Z,1.17
2022-10-22T09:34:46.368Z,1.50
2022-10-22T09:37:19.653Z,1.50
2022-10-22T09:39:51.907Z,1.23
2022-10-22T09:42:21.643Z,1.50
2022-10-22T09:44:55.233Z,1.37
2022-10-22T09:47:43.603Z,1.43
2022-10-22T09:50:28.956Z,1.27
2022-10-22T09:53:02.188Z,1.33
2022-10-22T09:55:29.851Z,1.30
2022-10-22T09:58:00.846Z,0.93
2022-10-22T10:00:30.995Z,1.27
2022-10-22T10:03:00.616Z,1.20
2022-10-22T10:05:30.737Z,1.30
2022-10-22T10:07:59.422Z,1.30
2022-10-22T10:10:40.734Z,1.17
2022-10-22T10:13:36.301Z,1.40
2022-10-22T10:16:12.766Z,1.10
2022-10-22T10:18:53.137Z,1.00
2022-10-22T10:21:30.921Z,1.27
2022-10-22T10:24:09.987Z,1.30
2022-10-22T10:26:44.299Z,1.07
2022-10-22T10:29:23.481Z,1.50
2022-10-22T10:32:08.546Z,1.47
2022-10-22T10:34:46.495Z,1.40
2022-10-22T10:37:21.967Z,1.60
2022-10-22T10:40:08.911Z,1.37
2022-10-22T10:42:42.827Z,1.33
2022-10-22T10:45:19.902Z,1.40
2022-10-22T10:48:16.496Z,1.70
2022-10-22T10:50:58.651Z,1.43
2022-10-22T10:53:38.626Z,1.10
2022-10-22T10:56:16.311Z,1.10
2022-10-22T10:58:52.198Z,1.60
2022-10-22T11:01:28.485Z,1.03
2022-10-22T11:04:16.301Z,1.13
2022-10-22T11:06:45.727Z,1.53
2022-10-22T11:09:24.223Z,1.43
2022-10-22T11:11:56.996Z,1.40
2022-10-22T11:14:33.483Z,1.30
2022-10-22T11:17:07.411Z,1.33
2022-10-22T11:19:51.497Z,1.20
2022-10-22T11:22:27.229Z,1.33
2022-10-22T11:25:01.150Z,1.67
2022-10-22T11:27:37.141Z,1.23
2022-10-22T11:30:12.224Z,1.10
2022-10-22T11:32:42.445Z,1.67
2022-10-22T11:35:17.320Z,1.43
2022-10-22T11:37:46.674Z,1.50
2022-10-22T11:40:19.494Z,1.77
2022-10-22T11:42:51.104Z,1.13
2022-10-22T11:45:30.695Z,1.30
2022-10-22T11:48:07.112Z,1.47
2022-10-22T11:50:52.764Z,1.50
2022-10-22T11:53:27.409Z,2.00
2022-10-22T11:55:59.749Z,1.50
2022-10-22T11:58:42.158Z,1.67
2022-10-22T12:01:25.146Z,1.50
2022-10-22T12:03:54.669Z,1.80
2022-10-22T12:06:25.873Z,1.60
2022-10-22T12:09:03.041Z,1.50
2022-10-22T12:11:39.143Z,1.70
2022-10-22T12:14:20.871Z,1.53
2022-10-22T12:16:57.572Z,1.57
2022-10-22T12:19:28.549Z,1.90
2022-10-22T12:22:00.837Z,1.77
2022-10-22T12:24:33.363Z,1.53
2022-10-22T12:27:01.033Z,1.40
2022-10-22T12:29:28.901Z,2.70
2022-10-22T12:31:57.659Z,1.20
2022-10-22T12:34:26.756Z,1.33
2022-10-22T12:36:55.077Z,1.17
2022-10-22T12:39:28.120Z,1.60
2022-10-22T12:41:56.370Z,1.40
2022-10-22T12:44:24.220Z,1.57
2022-10-22T12:46:55.966Z,1.70
2022-10-22T12:49:33.979Z,2.13
2022-10-22T12:52:04.764Z,1.50
2022-10-22T12:54:35.834Z,1.50
2022-10-22T12:57:03.974Z,2.00
2022-10-22T12:59:36.515Z,1.40
2022-10-22T13:02:16.215Z,1.30
2022-10-22T13:04:43.929Z,1.53
2022-10-22T13:07:22.304Z,1.53
2022-10-22T13:09:59.939Z,1.37
2022-10-22T13:12:29.123Z,1.27
2022-10-22T13:14:56.839Z,1.10
2022-10-22T13:17:40.562Z,1.30
2022-10-22T13:20:18.966Z,1.40
2022-10-22T13:23:00.323Z,1.60
2022-10-22T13:25:31.734Z,1.63
2022-10-22T13:28:02.758Z,1.30
2022-10-22T13:30:32.605Z,1.27
2022-10-22T13:33:02.553Z,0.97
2022-10-22T13:35:33.193Z,1.20
2022-10-22T13:38:01.445Z,1.20
2022-10-22T13:40:30.543Z,1.50
2022-10-22T13:42:58.815Z,1.20
2022-10-22T13:45:29.226Z,1.30
2022-10-22T13:47:57.114Z,1.20
2022-10-22T13:50:25.093Z,1.63
2022-10-22T13:52:55.525Z,1.30
2022-10-22T13:55:26.788Z,1.13
2022-10-22T13:57:57.605Z,1.43
2022-10-22T14:00:26.383Z,1.57
2022-10-22T14:02:57.952Z,1.23
2022-10-22T14:05:25.952Z,1.33
2022-10-22T14:07:54.170Z,1.30
2022-10-22T14:10:24.063Z,1.20
2022-10-22T14:12:53.656Z,1.10
2022-10-22T14:15:24.932Z,1.30
2022-10-22T14:17:57.447Z,1.60
2022-10-22T14:20:27.911Z,1.30
2022-10-22T14:22:56.137Z,1.27
2022-10-22T14:25:25.744Z,1.53
2022-10-22T14:27:56.541Z,1.83
2022-10-22T14:30:29.614Z,1.10
2022-10-22T14:32:59.376Z,1.40
2022-10-22T14:35:27.152Z,1.37
2022-10-22T14:37:54.992Z,1.20
2022-10-22T14:40:22.672Z,1.20
2022-10-22T14:42:50.431Z,1.50
2022-10-22T14:45:20.378Z,1.03
2022-10-22T14:47:50.027Z,1.40
2022-10-22T14:50:18.515Z,1.20
2022-10-22T14:52:46.453Z,1.23
2022-10-22T14:55:16.802Z,1.40
2022-10-22T14:57:45.031Z,1.43
2022-10-22T15:00:15.866Z,0.93
2022-10-22T15:02:44.659Z,1.23
2022-10-22T15:05:14.329Z,1.87
2022-10-22T15:07:42.774Z,1.57
2022-10-22T15:10:11.405Z,1.30
2022-10-22T15:12:39.211Z,1.83
2022-10-22T15:15:08.421Z,1.43
2022-10-22T15:17:36.438Z,1.33
2022-10-22T15:20:05.551Z,1.50
2022-10-22T15:22:36.104Z,1.67
2022-10-22T15:25:06.996Z,1.43
2022-10-22T15:27:35.421Z,1.40
2022-10-22T15:32:35.807Z,1.20
2022-10-22T15:35:05.667Z,1.70
2022-10-22T15:37:35.273Z,1.63
2022-10-22T15:40:03.811Z,1.57
2022-10-22T15:42:31.552Z,1.30
2022-10-22T15:45:00.039Z,1.93
2022-10-22T15:47:29.753Z,1.87
2022-10-22T15:49:58.307Z,1.43
2022-10-22T15:52:26.146Z,1.90
2022-10-22T15:54:55.260Z,1.47
2022-10-22T15:57:22.959Z,1.80
2022-10-22T15:59:51.858Z,1.93
2022-10-22T16:02:19.554Z,1.70
2022-10-22T16:04:47.896Z,1.30
2022-10-22T16:07:15.598Z,1.20
2022-10-22T16:09:43.314Z,1.67
2022-10-22T16:12:14.215Z,1.23
2022-10-22T16:14:44.335Z,1.43
2022-10-22T16:17:12.068Z,1.83
2022-10-22T16:19:39.818Z,1.23
2022-10-22T16:22:10.097Z,2.10
2022-10-22T16:24:40.300Z,1.40
2022-10-22T16:27:08.077Z,1.23
2022-10-22T16:29:38.711Z,1.23
2022-10-22T16:32:07.531Z,1.50
2022-10-22T16:34:35.454Z,1.30
2022-10-22T16:37:03.220Z,1.33
2022-10-22T16:39:30.879Z,1.33
2022-10-22T16:41:58.577Z,1.60
2022-10-22T16:44:26.693Z,1.53
2022-10-22T16:46:55.795Z,1.37
2022-10-22T16:49:23.664Z,1.30
2022-10-22T16:51:51.400Z,1.50
2022-10-22T16:54:19.238Z,1.40
2022-10-22T16:56:46.872Z,1.20
2022-10-22T16:59:14.569Z,1.80
2022-10-22T17:01:42.280Z,1.57
2022-10-22T17:04:11.764Z,1.43
2022-10-22T17:06:39.625Z,1.50
2022-10-22T17:09:07.366Z,1.63
2022-10-22T17:11:37.055Z,2.03
2022-10-22T17:14:07.152Z,1.63
2022-10-22T17:16:35.063Z,1.70
2022-10-22T17:19:05.362Z,1.77
2022-10-22T17:21:34.895Z,2.10
2022-10-22T17:24:02.605Z,1.60
2022-10-22T17:26:33.155Z,1.60
2022-10-22T17:29:00.937Z,1.60
2022-10-22T17:31:32.605Z,1.63
2022-10-22T17:34:01.040Z,1.50
2022-10-22T17:36:33.333Z,1.60
2022-10-22T17:39:07.375Z,1.50
2022-10-22T17:41:37.608Z,1.60
2022-10-22T17:44:08.785Z,1.73
2022-10-22T17:46:36.670Z,1.47
2022-10-22T17:49:07.165Z,1.60
2022-10-22T17:51:34.917Z,1.70
2022-10-22T17:54:07.328Z,1.67
2022-10-22T17:56:39.992Z,1.93
2022-10-22T17:59:07.855Z,1.60
2022-10-22T18:01:37.864Z,1.83
2022-10-22T18:04:08.061Z,1.57
2022-10-22T18:06:36.627Z,1.40
2022-10-22T18:09:06.973Z,1.50
2022-10-22T18:11:36.571Z,1.67
2022-10-22T18:14:05.082Z,1.50
2022-10-22T18:16:33.041Z,1.80
2022-10-22T18:19:01.326Z,1.53
2022-10-22T18:21:32.182Z,1.37
2022-10-22T18:24:00.315Z,1.47
2022-10-22T18:26:29.834Z,1.87
2022-10-22T18:28:59.129Z,1.53
2022-10-22T18:31:30.361Z,1.60
2022-10-22T18:34:00.277Z,1.70
2022-10-22T18:36:28.611Z,1.53
2022-10-22T18:38:58.610Z,1.70
2022-10-22T18:41:27.382Z,1.97
2022-10-22T18:43:58.434Z,1.70
2022-10-22T18:46:26.760Z,2.30
2022-10-22T18:48:55.386Z,1.87
2022-10-22T18:51:24.010Z,1.70
2022-10-22T18:54:05.151Z,2.60
2022-10-22T18:56:41.514Z,2.20
2022-10-22T18:59:19.563Z,2.00
2022-10-22T19:01:47.746Z,2.00
2022-10-22T19:04:15.863Z,2.03
2022-10-22T19:06:45.757Z,1.70
2022-10-22T19:09:14.780Z,2.23
2022-10-22T19:11:43.756Z,2.40
2022-10-22T19:14:11.602Z,2.17
2022-10-22T19:16:40.649Z,2.33
2022-10-22T19:19:09.128Z,2.43
2022-10-22T19:21:38.194Z,2.40
2022-10-22T19:24:06.629Z,2.23
2022-10-22T19:26:34.429Z,1.83
2022-10-22T19:29:02.411Z,2.00
2022-10-22T19:31:31.339Z,1.97
2022-10-22T19:34:02.079Z,2.13
2022-10-22T19:36:30.776Z,2.03
2022-10-22T19:38:59.344Z,2.40
2022-10-22T19:41:29.093Z,2.03
2022-10-22T19:43:58.312Z,2.10
2022-10-22T19:46:27.208Z,1.60
2022-10-22T19:48:57.053Z,2.43
2022-10-22T19:51:29.774Z,2.00
2022-10-22T19:54:03.577Z,1.93
2022-10-22T19:56:32.215Z,2.00
2022-10-22T19:59:00.328Z,2.53
2022-10-22T20:01:28.373Z,1.87
2022-10-22T20:03:56.378Z,2.20
2022-10-22T20:06:24.479Z,2.33
2022-10-22T20:08:56.124Z,2.50
2022-10-22T20:11:26.023Z,2.53
2022-10-22T20:13:53.757Z,3.50
2022-10-22T20:16:23.774Z,3.30
2022-10-22T20:18:51.782Z,2.70
2022-10-22T20:21:20.731Z,2.80
2022-10-22T20:23:52.251Z,2.57
2022-10-22T20:26:23.907Z,2.43
2022-10-22T20:28:52.330Z,2.27
2022-10-22T20:31:21.853Z,2.00
2022-10-22T20:33:51.460Z,2.10
2022-10-22T20:36:21.039Z,2.07
2022-10-22T20:38:48.972Z,2.37
2022-10-22T20:41:18.699Z,2.07
2022-10-22T20:43:49.296Z,2.20
2022-10-22T20:46:19.442Z,2.20
2022-10-22T20:48:47.445Z,2.07
2022-10-22T20:51:15.263Z,2.20
2022-10-22T20:53:43.041Z,2.30
2022-10-22T20:56:11.155Z,2.17
2022-10-22T20:58:39.250Z,2.50
2022-10-22T21:01:12.090Z,2.40
2022-10-22T21:03:40.085Z,1.90
2022-10-22T21:06:08.291Z,2.20
2022-10-22T21:08:36.021Z,2.30
2022-10-22T21:11:03.788Z,2.10
2022-10-22T21:13:32.690Z,2.17
2022-10-22T21:16:00.775Z,1.93
2022-10-22T21:18:29.823Z,1.97
2022-10-22T21:20:57.527Z,2.03
2022-10-22T21:23:25.208Z,2.27
2022-10-22T21:25:57.078Z,2.40
2022-10-22T21:28:24.916Z,2.73
2022-10-22T21:30:52.672Z,2.43
2022-10-22T21:33:21.494Z,2.07
2022-10-22T21:35:55.769Z,2.50
2022-10-22T21:38:24.546Z,2.30
2022-10-22T21:40:52.269Z,2.23
2022-10-22T21:43:20.248Z,2.60
2022-10-22T21:45:48.059Z,2.33
2022-10-22T21:48:16.604Z,2.20
2022-10-22T21:50:45.342Z,2.83
2022-10-22T21:53:14.469Z,2.00
2022-10-22T21:55:42.598Z,2.80
2022-10-22T21:58:10.501Z,2.43
2022-10-22T22:00:38.274Z,2.50
2022-10-22T22:03:07.950Z,2.53
2022-10-22T22:05:35.701Z,2.33
2022-10-22T22:08:03.388Z,2.60
2022-10-22T22:10:32.608Z,2.30
2022-10-22T22:13:00.296Z,2.50
2022-10-22T22:15:28.758Z,2.47
2022-10-22T22:17:56.425Z,2.67
2022-10-22T22:20:24.185Z,2.33
2022-10-22T22:22:51.956Z,2.33
2022-10-22T22:25:19.638Z,2.67
2022-10-22T22:27:48.712Z,2.60
2022-10-22T22:30:17.891Z,2.30
2022-10-22T22:32:45.604Z,2.10
2022-10-22T22:35:13.246Z,2.67
2022-10-22T22:37:41.259Z,2.70
2022-10-22T22:40:10.141Z,2.20
2022-10-22T22:42:39.553Z,2.40
2022-10-22T22:45:09.220Z,2.73
2022-10-22T22:47:36.919Z,2.90
2022-10-22T22:50:05.034Z,3.47
2022-10-22T22:52:32.821Z,3.00
2022-10-22T22:55:00.487Z,2.60
2022-10-22T22:57:28.290Z,2.63
2022-10-22T22:59:55.953Z,3.07
2022-10-22T23:02:25.095Z,3.00
2022-10-22T23:04:52.873Z,2.57
2022-10-22T23:07:20.571Z,3.07
2022-10-22T23:09:48.501Z,2.77
2022-10-22T23:12:16.153Z,2.73
2022-10-22T23:14:43.835Z,2.80
2022-10-22T23:17:11.463Z,2.70
2022-10-22T23:19:40.465Z,2.53
2022-10-22T23:22:08.151Z,2.90
2022-10-22T23:24:35.960Z,2.27
2022-10-22T23:27:04.942Z,3.00
2022-10-22T23:29:35.836Z,2.47
2022-10-22T23:32:05.677Z,2.77
2022-10-22T23:34:33.710Z,2.73
2022-10-22T23:37:02.818Z,3.00
2022-10-22T23:39:30.625Z,2.73
2022-10-22T23:41:59.179Z,2.87
2022-10-22T23:44:27.131Z,2.80
2022-10-22T23:46:55.170Z,3.00
2022-10-22T23:49:23.026Z,2.70
2022-10-22T23:51:50.786Z,2.57
2022-10-22T23:54:20.122Z,3.23
2022-10-22T23:56:48.106Z,2.90
2022-10-22T23:59:16.386Z,2.67
